Time;durP1;ratioP1;P1;durP2;ratioP2;P2;SDS_P1;SDS_P2;PMS_P1;PMS_P2;Temp;Humidity;BMP_temperature;BMP_pressure;BME280_temperature;BME280_humidity;BME280_pressure;Samples;Min_cycle;Max_cycle;Signal;HPM_P1;HPM_P2
2022/04/09 00:01:01;;;;;;;23.00;9.40;;;;;;;12.74;45.81;99269.94;123335;1096;104358;-77
2022/04/09 00:03:33;;;;;;;21.17;9.80;;;;;;;12.72;45.85;99270.82;123356;1097;104277;-76
2022/04/09 00:06:06;;;;;;;20.03;8.83;;;;;;;12.72;45.69;99268.19;123409;1099;104261;-77
2022/04/09 00:08:37;;;;;;;21.77;9.03;;;;;;;12.72;45.68;99260.30;123364;1097;104267;-75
2022/04/09 00:11:09;;;;;;;24.07;9.27;;;;;;;12.72;46.21;99271.69;123323;1099;105441;-77
2022/04/09 00:13:41;;;;;;;22.83;9.43;;;;;;;12.71;46.05;99269.05;123343;1099;104322;-77
2022/04/09 00:16:12;;;;;;;21.97;9.57;;;;;;;12.69;46.13;99262.91;123335;1099;104293;-76
2022/04/09 00:18:44;;;;;;;21.13;9.37;;;;;;;12.67;46.20;99272.52;123372;1099;104341;-76
2022/04/09 00:21:15;;;;;;;23.07;9.50;;;;;;;12.63;46.25;99265.48;123334;1096;104444;-77
2022/04/09 00:23:47;;;;;;;21.67;9.30;;;;;;;12.59;46.31;99265.47;123343;1099;104399;-77
2022/04/09 00:26:18;;;;;;;21.03;9.17;;;;;;;12.55;46.66;99263.67;123362;1099;104424;-76
2022/04/09 00:28:49;;;;;;;19.30;8.45;;;;;;;12.53;46.58;99254.02;123275;1099;104267;-76
2022/04/09 00:31:22;;;;;;;20.60;8.27;;;;;;;12.50;46.86;99249.61;123308;1098;104271;-77
2022/04/09 00:33:53;;;;;;;19.03;8.80;;;;;;;12.46;46.83;99242.55;123374;1099;104367;-76
2022/04/09 00:36:24;;;;;;;17.33;7.70;;;;;;;12.40;47.09;99238.13;123321;1099;104708;-76
2022/04/09 00:38:56;;;;;;;19.17;7.57;;;;;;;12.38;47.03;99242.48;123317;1097;104265;-78
2022/04/09 00:41:29;;;;;;;16.37;7.37;;;;;;;12.36;46.96;99243.36;123345;1097;104239;-76
2022/04/09 00:44:00;;;;;;;18.10;7.23;;;;;;;12.32;46.95;99236.30;123360;1099;104335;-75
2022/04/09 00:46:31;;;;;;;17.07;7.30;;;;;;;12.30;47.38;99238.92;123356;1097;104224;-76
2022/04/09 00:49:03;;;;;;;15.50;7.07;;;;;;;12.26;47.20;99242.38;123358;1099;104367;-78
2022/04/09 00:51:37;;;;;;;16.03;7.17;;;;;;;12.24;47.50;99241.49;123334;1099;104309;-75
2022/04/09 00:54:10;;;;;;;17.43;7.00;;;;;;;12.21;47.35;99247.59;123335;1099;104258;-76
2022/04/09 00:56:43;;;;;;;18.27;7.47;;;;;;;12.19;47.33;99244.08;123341;1099;104187;-76
2022/04/09 00:59:16;;;;;;;18.20;7.73;;;;;;;12.17;47.38;99244.92;123391;1099;104724;-76
2022/04/09 01:01:49;;;;;;;19.05;7.65;;;;;;;12.16;47.41;99238.80;123289;1099;105673;-76
2022/04/09 01:04:21;;;;;;;19.17;7.50;;;;;;;12.12;47.57;99231.73;123336;1099;104230;-76
2022/04/09 01:06:55;;;;;;;17.10;7.30;;;;;;;12.09;47.94;99229.11;123342;1098;104303;-75
2022/04/09 01:09:27;;;;;;;17.23;7.57;;;;;;;12.08;47.90;99229.96;123395;1099;104334;-76
2022/04/09 01:12:00;;;;;;;14.97;6.80;;;;;;;12.07;47.64;99222.06;123337;1097;104229;-76
2022/04/09 01:14:34;;;;;;;14.50;6.63;;;;;;;12.06;48.11;99223.81;123307;1099;104364;-76
2022/04/09 01:17:06;;;;;;;14.87;6.90;;;;;;;12.04;47.86;99217.64;123335;1099;104373;-76
2022/04/09 01:19:37;;;;;;;16.23;6.40;;;;;;;12.07;47.87;99217.67;123339;1099;104632;-77
2022/04/09 01:22:09;;;;;;;16.30;6.93;;;;;;;12.09;47.93;99221.22;123375;1099;104421;-77
2022/04/09 01:24:40;;;;;;;15.00;7.20;;;;;;;12.10;48.07;99216.83;123324;1099;104392;-76
2022/04/09 01:27:13;;;;;;;15.93;6.30;;;;;;;12.10;48.05;99211.57;123304;1098;104418;-76
2022/04/09 01:29:46;;;;;;;14.50;6.60;;;;;;;12.11;47.82;99214.22;123334;1099;104338;-76
2022/04/09 01:32:20;;;;;;;14.65;6.70;;;;;;;12.12;47.90;99205.44;123265;1099;104334;-77
2022/04/09 01:34:49;;;;;;;;;;;;;;;12.12;48.01;99204.56;123362;1099;104341;-77
2022/04/09 01:37:21;;;;;;;11.63;5.90;;;;;;;12.13;48.06;99207.20;123127;1099;104931;-76
2022/04/09 01:39:52;;;;;;;13.63;6.40;;;;;;;12.14;47.87;99197.56;123306;1099;104562;-75
2022/04/09 01:42:26;;;;;;;15.90;6.50;;;;;;;12.14;47.85;99198.47;123105;1099;104394;-76
2022/04/09 01:44:59;;;;;;;16.07;6.63;;;;;;;12.13;48.16;99196.69;123327;1099;109380;-76
2022/04/09 01:47:30;;;;;;;14.40;6.43;;;;;;;12.12;48.23;99200.17;123397;1099;104667;-77
2022/04/09 01:50:03;;;;;;;15.27;6.20;;;;;;;12.12;48.13;99194.91;123149;1099;104547;-76
2022/04/09 01:52:35;;;;;;;14.20;7.40;;;;;;;12.12;48.23;99196.67;123085;1099;104431;-77
2022/04/09 01:55:08;;;;;;;15.60;7.40;;;;;;;12.10;48.37;99194.03;123099;1099;104344;-75
2022/04/09 01:57:43;;;;;;;13.93;6.47;;;;;;;12.07;48.92;99191.38;123075;1102;104404;-77
2022/04/09 02:00:17;;;;;;;15.87;6.53;;;;;;;12.08;48.54;99187.89;123070;1102;104306;-77
2022/04/09 02:02:49;;;;;;;16.47;7.57;;;;;;;12.09;48.78;99187.03;123084;1102;104469;-75
2022/04/09 02:05:23;;;;;;;15.13;6.80;;;;;;;12.09;48.87;99184.41;123044;1102;104450;-76
2022/04/09 02:07:54;;;;;;;14.53;6.67;;;;;;;12.11;48.71;99181.79;123059;1099;104514;-77
2022/04/09 02:10:28;;;;;;;14.25;6.40;;;;;;;12.12;48.78;99186.16;123070;1099;104394;-76
2022/04/09 02:13:01;;;;;;;17.13;7.33;;;;;;;12.13;48.60;99180.91;123066;1102;104424;-76
2022/04/09 02:15:34;;;;;;;17.57;6.87;;;;;;;12.15;48.56;99189.69;123024;1099;104418;-77
2022/04/09 02:18:06;;;;;;;14.80;6.30;;;;;;;12.17;48.66;99187.06;123019;1099;104505;-76
2022/04/09 02:20:37;;;;;;;13.17;6.13;;;;;;;12.18;48.71;99173.93;123011;1102;104727;-76
2022/04/09 02:23:11;;;;;;;15.15;6.15;;;;;;;12.20;48.79;99179.20;123048;1102;104495;-75
2022/04/09 02:25:42;;;;;;;14.40;6.50;;;;;;;12.20;48.61;99179.20;123083;1099;104238;-76
2022/04/09 02:28:16;;;;;;;15.13;6.40;;;;;;;12.19;48.70;99178.33;123083;1099;104308;-76
2022/04/09 02:30:48;;;;;;;14.10;6.40;;;;;;;12.18;48.78;99173.93;123296;1099;104335;-77
2022/04/09 02:33:28;;;;;;;13.60;6.37;;;;;;;12.17;49.00;99166.94;123325;1099;104294;-75
2022/04/09 02:35:59;;;;;;;15.63;6.80;;;;;;;12.17;48.83;99173.92;123325;1098;109557;-76
2022/04/09 02:38:31;;;;;;;12.00;6.10;;;;;;;12.15;48.94;99176.53;123342;1099;104342;-76
2022/04/09 02:41:03;;;;;;;12.43;5.90;;;;;;;12.12;49.03;99184.40;123335;1099;104347;-75
2022/04/09 02:43:35;;;;;;;11.70;5.67;;;;;;;12.11;48.95;99185.29;123299;1099;104470;-77
2022/04/09 02:46:07;;;;;;;11.80;5.87;;;;;;;12.11;49.04;99180.03;123336;1099;104526;-78
2022/04/09 02:48:41;;;;;;;13.00;5.87;;;;;;;12.10;48.88;99165.11;123345;1099;104390;-76
2022/04/09 02:51:13;;;;;;;13.37;5.40;;;;;;;12.09;49.03;99163.37;123375;1099;104406;-77
2022/04/09 02:53:46;;;;;;;14.60;6.00;;;;;;;12.09;49.04;99171.26;123141;1099;104395;-76
2022/04/09 02:56:20;;;;;;;12.63;5.93;;;;;;;12.08;49.14;99174.75;123067;1099;107513;-76
2022/04/09 02:58:52;;;;;;;12.43;5.60;;;;;;;12.07;48.95;99178.23;123099;1099;104444;-76
2022/04/09 03:01:25;;;;;;;18.10;5.97;;;;;;;12.06;48.95;99173.86;123037;1102;104405;-75
2022/04/09 03:03:56;;;;;;;12.20;5.95;;;;;;;12.03;48.91;99165.95;123102;1099;104430;-76
2022/04/09 03:06:28;;;;;;;13.80;5.80;;;;;;;12.05;49.35;99166.83;123310;1099;104521;-77
2022/04/09 03:08:59;;;;;;;16.60;5.85;;;;;;;12.03;49.02;99173.84;123290;1099;104520;-76
2022/04/09 03:11:31;;;;;;;12.53;5.77;;;;;;;12.00;49.00;99173.81;123121;1099;104445;-76
2022/04/09 03:14:02;;;;;;;14.30;6.10;;;;;;;11.99;49.01;99166.78;123347;1098;104349;-76
2022/04/09 03:16:33;;;;;;;14.67;6.17;;;;;;;11.97;49.19;99164.14;123055;1099;104431;-77
2022/04/09 03:19:06;;;;;;;14.77;6.07;;;;;;;11.94;49.24;99166.73;123142;1099;104389;-76
2022/04/09 03:21:37;;;;;;;13.37;6.43;;;;;;;11.92;49.31;99154.41;123317;1099;104341;-76
2022/04/09 03:24:10;;;;;;;18.07;6.20;;;;;;;11.91;49.26;99145.65;123374;1099;104351;-76
2022/04/09 03:26:42;;;;;;;14.33;6.33;;;;;;;11.90;49.36;99145.63;123322;1099;104358;-75
2022/04/09 03:29:14;;;;;;;16.07;7.07;;;;;;;11.85;49.70;99146.47;123410;1099;104303;-75
2022/04/09 03:31:46;;;;;;;14.37;6.23;;;;;;;11.82;49.60;99141.18;123831;1098;104351;-77
2022/04/09 03:34:18;;;;;;;17.90;6.53;;;;;;;11.82;49.53;99154.32;123311;1099;104430;-76
2022/04/09 03:36:50;;;;;;;13.70;6.53;;;;;;;11.83;49.40;99152.59;123337;1099;104216;-76
2022/04/09 03:39:22;;;;;;;18.23;6.70;;;;;;;11.83;49.58;99137.70;123312;1099;104262;-76
2022/04/09 03:41:53;;;;;;;16.40;6.93;;;;;;;11.82;49.93;99153.45;123344;1099;104386;-76
2022/04/09 03:44:25;;;;;;;16.75;6.80;;;;;;;11.80;50.23;99149.94;123580;1099;104347;-75
2022/04/09 03:47:02;;;;;;;19.48;6.80;;;;;;;11.76;49.81;99154.27;123474;1099;104306;-75
2022/04/09 03:49:35;;;;;;;16.27;6.50;;;;;;;11.73;49.94;99158.62;124289;1099;104406;-75
2022/04/09 03:52:08;;;;;;;15.87;7.27;;;;;;;11.68;50.04;99158.58;123623;1099;104270;-75
2022/04/09 03:54:39;;;;;;;15.67;7.53;;;;;;;11.64;50.44;99164.66;123627;1099;104274;-75
2022/04/09 03:57:11;;;;;;;17.07;7.40;;;;;;;11.60;50.10;99169.00;123534;1099;104363;-75
2022/04/09 03:59:51;;;;;;;15.93;6.93;;;;;;;11.58;50.48;99175.13;123365;1099;104392;-75
2022/04/09 04:02:24;;;;;;;17.73;7.27;;;;;;;11.55;50.46;99175.97;123367;1099;104245;-76
2022/04/09 04:05:01;;;;;;;17.70;7.40;;;;;;;11.57;50.62;99178.61;123362;1098;104345;-75
2022/04/09 04:07:34;;;;;;;16.43;7.70;;;;;;;11.60;50.65;99174.27;123641;1098;104264;-77
2022/04/09 04:10:09;;;;;;;18.27;8.50;;;;;;;11.64;51.28;99156.77;123326;1099;104390;-76
2022/04/09 04:12:42;;;;;;;17.53;7.90;;;;;;;11.66;50.96;99142.80;123323;1099;104370;-77
2022/04/09 04:15:15;;;;;;;17.63;6.83;;;;;;;11.70;51.33;99141.06;123362;1099;104287;-76
2022/04/09 04:17:49;;;;;;;16.05;7.00;;;;;;;11.73;51.20;99138.47;123407;1098;104239;-77
2022/04/09 04:20:24;;;;;;;17.07;6.87;;;;;;;11.78;50.89;99134.16;123438;1099;104322;-76
2022/04/09 04:22:58;;;;;;;20.88;7.90;;;;;;;11.85;51.13;99119.31;123431;1096;104396;-76
2022/04/09 04:25:30;;;;;;;20.68;6.92;;;;;;;11.88;51.41;99119.34;123370;1098;104677;-76
2022/04/09 04:28:02;;;;;;;13.53;6.50;;;;;;;11.92;51.21;99112.34;123332;1099;104347;-76
2022/04/09 04:30:35;;;;;;;15.93;7.20;;;;;;;11.97;50.94;99116.81;123370;1099;104402;-76
2022/04/09 04:33:07;;;;;;;18.82;6.62;;;;;;;12.02;51.15;99120.35;123394;1099;104344;-76
2022/04/09 04:35:44;;;;;;;14.67;6.93;;;;;;;12.09;51.17;99105.53;123339;1099;104337;-76
2022/04/09 04:38:15;;;;;;;16.53;6.93;;;;;;;12.14;51.00;99101.17;123311;1099;104332;-75
2022/04/09 04:40:50;;;;;;;18.73;7.27;;;;;;;12.22;51.25;99095.97;123395;1099;104233;-76
2022/04/09 04:43:21;;;;;;;19.20;7.15;;;;;;;12.27;51.34;99088.97;123404;1098;104226;-75
2022/04/09 04:45:54;;;;;;;16.30;6.77;;;;;;;12.37;51.09;99087.27;123400;1099;104329;-76
2022/04/09 04:48:25;;;;;;;17.07;6.60;;;;;;;12.46;51.21;99089.09;123329;1096;104338;-77
2022/04/09 04:50:59;;;;;;;14.90;7.07;;;;;;;12.55;51.23;99089.14;123331;1099;104493;-76
2022/04/09 04:53:34;;;;;;;15.37;6.23;;;;;;;12.64;51.28;99094.45;123347;1099;104368;-77
2022/04/09 04:56:08;;;;;;;15.97;6.70;;;;;;;12.72;51.22;99091.85;123386;1099;104284;-76
2022/04/09 04:58:46;;;;;;;15.30;6.77;;;;;;;12.81;51.20;99098.89;123488;1099;104408;-75
2022/04/09 05:01:18;;;;;;;11.43;6.17;;;;;;;12.88;51.37;99096.28;123598;1098;104364;-75
2022/04/09 05:03:55;;;;;;;12.63;6.20;;;;;;;12.96;51.40;99091.05;123635;1099;101911;-75
2022/04/09 05:06:37;;;;;;;16.23;6.47;;;;;;;13.04;51.16;99093.71;123659;1099;102255;-75
2022/04/09 05:09:09;;;;;;;17.03;6.47;;;;;;;13.10;51.29;99083.20;123564;1099;104261;-75
2022/04/09 05:11:48;;;;;;;16.60;7.50;;;;;;;13.15;51.63;99081.48;123583;1099;104650;-75
2022/04/09 05:14:22;;;;;;;15.30;6.53;;;;;;;13.19;51.28;99080.59;123508;1099;104277;-76
2022/04/09 05:16:59;;;;;;;16.83;6.63;;;;;;;13.22;51.62;99077.97;123309;1099;104824;-75
2022/04/09 05:19:30;;;;;;;;;;;;;;;13.28;51.24;99074.47;123415;1097;104306;-77
2022/04/09 05:22:08;;;;;;;12.93;6.17;;;;;;;13.35;51.48;99075.39;123316;1098;104716;-75
2022/04/09 05:24:46;;;;;;;17.77;6.60;;;;;;;13.40;51.42;99069.26;123389;1099;104437;-76
2022/04/09 05:27:18;;;;;;;15.40;6.40;;;;;;;13.45;51.53;99059.59;123337;1099;104354;-76
2022/04/09 05:29:50;;;;;;;14.97;6.87;;;;;;;13.52;51.13;99057.83;123302;1099;104382;-76
2022/04/09 05:32:24;;;;;;;14.10;7.13;;;;;;;13.60;51.83;99057.84;123366;1099;104324;-76
2022/04/09 05:34:57;;;;;;;15.20;7.30;;;;;;;13.68;51.25;99061.38;123372;1099;104331;-77
2022/04/09 05:37:31;;;;;;;15.18;6.80;;;;;;;13.75;51.73;99057.84;123411;1098;104316;-75
2022/04/09 05:40:05;;;;;;;14.75;6.55;;;;;;;13.81;52.00;99054.34;123357;1098;105006;-76
2022/04/09 05:42:37;;;;;;;;;;;;;;;13.89;51.42;99056.97;123429;1099;104270;-76
2022/04/09 05:45:10;;;;;;;15.00;6.53;;;;;;;14.01;51.41;99047.28;123345;1098;104281;-77
2022/04/09 05:47:46;;;;;;;19.85;6.85;;;;;;;14.13;51.78;99048.13;123339;1097;104262;-76
2022/04/09 05:50:20;;;;;;;15.10;7.00;;;;;;;14.27;51.74;99063.93;123344;1099;104325;-75
2022/04/09 05:52:53;;;;;;;14.97;7.10;;;;;;;14.38;51.02;99067.41;123331;1099;104297;-76
2022/04/09 05:55:25;;;;;;;15.20;6.37;;;;;;;14.48;51.73;99061.23;123385;1099;104279;-76
2022/04/09 05:57:57;;;;;;;13.53;6.60;;;;;;;14.58;51.52;99051.52;123566;1097;104249;-77
2022/04/09 06:00:31;;;;;;;17.47;6.47;;;;;;;14.66;51.60;99055.06;123475;1098;104364;-76
2022/04/09 06:03:11;;;;;;;13.80;6.37;;;;;;;14.76;51.76;99054.99;123400;1099;104348;-77
2022/04/09 06:05:44;;;;;;;14.73;6.63;;;;;;;14.82;51.22;99058.51;123378;1097;104352;-75
2022/04/09 06:08:22;;;;;;;16.30;6.50;;;;;;;14.91;50.99;99049.64;123522;1099;104351;-76
2022/04/09 06:10:54;;;;;;;16.27;6.50;;;;;;;14.99;51.01;99052.24;123515;1099;104213;-76
2022/04/09 06:13:28;;;;;;;14.87;6.80;;;;;;;15.08;50.87;99047.81;123508;1099;104277;-76
2022/04/09 06:16:00;;;;;;;17.03;7.00;;;;;;;15.16;51.73;99047.77;123541;1096;104229;-75
2022/04/09 06:18:35;;;;;;;14.23;6.63;;;;;;;15.28;51.21;99041.50;123557;1099;104659;-77
2022/04/09 06:21:07;;;;;;;12.70;6.20;;;;;;;15.40;51.70;99040.55;123484;1097;104504;-76
2022/04/09 06:23:40;;;;;;;16.27;6.50;;;;;;;15.51;51.13;99033.41;123349;1097;104367;-77
2022/04/09 06:26:12;;;;;;;15.53;6.60;;;;;;;15.63;51.43;99032.45;123375;1099;104233;-77
2022/04/09 06:28:53;;;;;;;15.23;6.70;;;;;;;15.77;50.57;99035.88;123472;1098;104377;-75
2022/04/09 06:31:25;;;;;;;15.27;6.80;;;;;;;15.92;50.55;99026.91;123382;1099;104220;-77
2022/04/09 06:33:56;;;;;;;18.30;6.60;;;;;;;16.04;50.59;99028.57;123321;1098;104367;-77
2022/04/09 06:36:28;;;;;;;13.50;6.50;;;;;;;16.17;50.90;99024.91;123360;1099;104303;-76
2022/04/09 06:39:03;;;;;;;18.93;6.83;;;;;;;16.31;50.62;99014.18;123374;1099;104258;-76
2022/04/09 06:41:38;;;;;;;20.13;6.67;;;;;;;16.46;50.12;99018.41;123364;1096;104267;-76
2022/04/09 06:44:12;;;;;;;17.07;6.67;;;;;;;16.60;50.23;99020.88;123369;1099;104542;-76
2022/04/09 06:47:16;;;;;;;15.77;7.00;;;;;;;16.82;50.49;99008.23;123292;1097;104508;-76
2022/04/09 06:49:55;;;;;;;18.07;6.83;;;;;;;16.96;49.72;99004.56;123428;1097;104268;-77
2022/04/09 06:52:28;;;;;;;14.90;6.37;;;;;;;17.12;49.80;99006.07;123392;1100;104369;-76
2022/04/09 06:55:12;;;;;;;15.03;6.20;;;;;;;17.28;49.27;98995.23;123412;1099;104310;-76
2022/04/09 06:57:46;;;;;;;15.50;6.47;;;;;;;17.42;49.07;98994.13;123448;1099;104300;-77
2022/04/09 07:00:20;;;;;;;27.37;6.93;;;;;;;17.57;49.01;99003.59;123407;1098;104395;-76
2022/04/09 07:02:51;;;;;;;11.85;5.70;;;;;;;17.76;49.44;99003.28;123417;1099;104315;-76
2022/04/09 07:05:24;;;;;;;18.30;6.40;;;;;;;17.96;48.74;99011.78;123482;1097;104309;-76
2022/04/09 07:08:01;;;;;;;12.87;5.80;;;;;;;18.16;48.22;99015.86;123483;1099;104318;-75
2022/04/09 07:10:34;;;;;;;19.77;6.10;;;;;;;18.37;48.48;99008.38;123445;1098;104268;-76
2022/04/09 07:13:06;;;;;;;14.80;6.10;;;;;;;18.53;48.27;99016.91;123499;1098;104256;-76
2022/04/09 07:15:38;;;;;;;13.63;5.67;;;;;;;18.69;48.13;98999.75;123442;1096;104262;-75
2022/04/09 07:18:10;;;;;;;17.10;5.90;;;;;;;18.86;47.40;98999.42;123360;1099;104332;-75
2022/04/09 07:20:44;;;;;;;12.60;5.33;;;;;;;19.12;47.48;98990.86;123382;1099;104315;-75
2022/04/09 07:23:18;;;;;;;13.13;5.58;;;;;;;19.39;47.21;98986.66;123373;1099;104338;-76
2022/04/09 07:25:53;;;;;;;12.17;5.57;;;;;;;19.56;46.07;98994.22;123296;1099;104287;-75
2022/04/09 07:28:25;;;;;;;11.05;5.10;;;;;;;19.78;45.74;98999.03;123365;1096;104255;-76
2022/04/09 07:30:57;;;;;;;11.17;5.37;;;;;;;19.98;45.89;99003.84;123435;1098;104376;-75
2022/04/09 07:33:29;;;;;;;14.07;5.60;;;;;;;20.08;45.74;98999.12;123358;1099;104367;-77
2022/04/09 07:36:00;;;;;;;14.07;5.60;;;;;;;20.11;44.48;98994.59;123322;1098;104243;-75
2022/04/09 07:38:31;;;;;;;18.70;6.30;;;;;;;20.18;44.30;98989.09;123321;1099;104367;-75
2022/04/09 07:41:03;;;;;;;11.93;5.63;;;;;;;20.27;44.49;98986.17;123333;1099;104287;-76
2022/04/09 07:43:34;;;;;;;10.00;5.30;;;;;;;20.37;44.15;98982.34;123332;1099;104229;-76
2022/04/09 07:46:06;;;;;;;14.83;5.43;;;;;;;20.44;44.19;98983.03;123374;1099;104277;-75
2022/04/09 07:48:38;;;;;;;13.93;5.20;;;;;;;20.46;42.92;98973.23;123349;1099;104352;-77
2022/04/09 07:51:10;;;;;;;12.73;5.33;;;;;;;20.48;43.09;98974.91;123299;1099;104351;-77
2022/04/09 07:53:42;;;;;;;11.20;5.10;;;;;;;20.48;43.34;98974.91;123320;1098;104328;-76
2022/04/09 07:56:14;;;;;;;13.77;4.93;;;;;;;20.51;42.21;98968.62;123333;1099;104297;-77
2022/04/09 07:58:46;;;;;;;12.53;5.20;;;;;;;20.55;42.23;98969.41;123412;1098;104341;-76
2022/04/09 08:01:18;;;;;;;13.93;5.30;;;;;;;20.55;42.81;98966.73;123557;1098;104242;-74
2022/04/09 08:03:49;;;;;;;13.47;5.77;;;;;;;20.58;41.61;98969.31;123779;1097;104412;-75
2022/04/09 08:06:21;;;;;;;15.60;5.90;;;;;;;20.61;42.38;98954.09;123814;1099;104286;-76
2022/04/09 08:08:53;;;;;;;13.90;5.60;;;;;;;20.69;42.50;98958.37;123784;1098;104335;-75
2022/04/09 08:11:26;;;;;;;15.40;5.60;;;;;;;20.70;41.74;98947.66;123675;1099;104258;-74
2022/04/09 08:13:57;;;;;;;13.63;5.00;;;;;;;20.69;40.54;98945.91;123700;1098;104248;-74
2022/04/09 08:16:29;;;;;;;9.67;4.57;;;;;;;20.66;41.79;98938.00;123475;1099;104412;-75
2022/04/09 08:19:03;;;;;;;9.23;4.80;;;;;;;20.70;41.11;98941.47;123583;1099;104341;-76
2022/04/09 08:21:35;;;;;;;8.55;3.75;;;;;;;20.64;39.17;98938.05;123494;1099;104262;-76
2022/04/09 08:24:07;;;;;;;8.35;4.05;;;;;;;20.72;38.76;98931.63;123364;1098;104189;-76
2022/04/09 08:26:39;;;;;;;10.35;4.53;;;;;;;20.79;40.02;98936.72;123343;1099;104287;-79
2022/04/09 08:29:15;;;;;;;9.23;4.20;;;;;;;20.86;39.69;98932.05;123384;1099;104438;-75
2022/04/09 08:31:47;;;;;;;13.80;4.83;;;;;;;20.90;39.30;98927.52;123363;1099;104681;-75
2022/04/09 08:34:19;;;;;;;10.03;4.23;;;;;;;20.94;39.92;98924.71;123349;1098;104245;-75
2022/04/09 08:36:51;;;;;;;8.35;4.20;;;;;;;21.00;39.26;98913.85;123388;1098;104316;-76
2022/04/09 08:39:23;;;;;;;10.13;3.90;;;;;;;21.06;39.35;98920.77;123364;1098;104717;-77
2022/04/09 08:41:58;;;;;;;9.15;4.05;;;;;;;21.10;38.91;98914.41;123310;1099;104637;-77
2022/04/09 08:44:31;;;;;;;6.37;3.57;;;;;;;21.10;37.84;98909.08;123371;1099;104326;-76
2022/04/09 08:47:03;;;;;;;11.00;4.05;;;;;;;21.10;38.12;98909.08;123349;1099;104341;-75
2022/04/09 08:49:39;;;;;;;7.03;4.07;;;;;;;21.14;38.49;98909.84;123355;1099;104290;-75
2022/04/09 08:52:12;;;;;;;10.73;4.37;;;;;;;21.19;38.37;98906.11;123349;1099;104399;-75
2022/04/09 08:54:44;;;;;;;13.60;4.60;;;;;;;21.24;38.02;98915.73;123333;1097;104640;-75
2022/04/09 08:57:17;;;;;;;9.90;4.35;;;;;;;21.35;38.44;98908.27;123400;1099;104287;-76
2022/04/09 08:59:48;;;;;;;13.23;4.30;;;;;;;21.46;38.15;98900.77;123398;1099;104424;-74
2022/04/09 09:02:31;;;;;;;7.83;4.00;;;;;;;21.60;37.98;98899.43;123606;1099;104245;-75
2022/04/09 09:05:05;;;;;;;9.73;3.97;;;;;;;21.70;37.16;98890.19;123370;1098;105061;-76
2022/04/09 09:07:46;;;;;;;8.93;3.90;;;;;;;21.72;37.87;98894.55;123336;1099;104383;-76
2022/04/09 09:10:19;;;;;;;10.37;4.17;;;;;;;21.71;37.36;98902.61;123583;1097;104259;-75
2022/04/09 09:13:04;;;;;;;12.15;4.33;;;;;;;21.73;36.88;98890.08;123655;1099;104265;-75
2022/04/09 09:15:48;;;;;;;10.30;4.30;;;;;;;21.79;36.78;98887.19;123613;1099;104239;-76
2022/04/09 09:18:26;;;;;;;8.57;3.77;;;;;;;21.81;36.30;98896.00;123457;1099;104300;-75
2022/04/09 09:21:00;;;;;;;9.57;3.87;;;;;;;21.83;37.06;98882.59;123344;1099;104371;-75
2022/04/09 09:23:34;;;;;;;9.33;3.60;;;;;;;21.80;36.00;98885.38;123408;1099;104348;-75
2022/04/09 09:26:05;;;;;;;7.43;3.70;;;;;;;21.76;35.87;98887.30;123365;1099;104801;-77
2022/04/09 09:28:39;;;;;;;9.77;4.00;;;;;;;21.80;35.46;98882.70;123402;1097;104335;-78
2022/04/09 09:31:13;;;;;;;10.97;4.13;;;;;;;21.96;35.72;98867.89;123364;1099;104284;-77
2022/04/09 09:33:50;;;;;;;10.73;4.03;;;;;;;22.14;35.74;98858.30;123314;1099;104370;-76
2022/04/09 09:36:36;;;;;;;10.13;3.90;;;;;;;22.34;34.59;98843.34;123409;1099;104336;-75
2022/04/09 09:39:13;;;;;;;8.97;3.67;;;;;;;22.54;35.15;98847.91;123357;1099;104332;-75
2022/04/09 09:41:54;;;;;;;6.43;3.33;;;;;;;22.72;34.74;98841.83;123401;1098;104676;-75
2022/04/09 09:44:34;;;;;;;10.63;3.60;;;;;;;22.80;32.69;98818.31;123580;1099;118944;-76
2022/04/09 09:47:25;;;;;;;7.43;3.27;;;;;;;22.94;33.08;98828.45;123340;1099;104510;-76
2022/04/09 09:50:01;;;;;;;10.17;3.73;;;;;;;23.13;32.79;98817.87;123386;1099;104329;-76
2022/04/09 09:52:34;;;;;;;6.37;3.23;;;;;;;23.31;32.70;98828.70;123303;1099;104705;-75
2022/04/09 09:55:13;;;;;;;6.30;3.60;;;;;;;23.49;33.07;98822.55;123381;1098;104220;-75
2022/04/09 09:57:49;;;;;;;6.93;3.37;;;;;;;23.62;31.56;98825.58;123565;1097;104246;-75
2022/04/09 10:00:25;;;;;;;8.77;3.00;;;;;;;23.75;32.49;98816.97;123543;1099;104392;-75
2022/04/09 10:02:59;;;;;;;6.37;3.10;;;;;;;23.85;31.47;98812.98;123801;1098;104265;-75
2022/04/09 10:05:31;;;;;;;8.63;3.37;;;;;;;23.93;31.58;98815.30;123710;1099;104357;-75
2022/04/09 10:08:03;;;;;;;7.27;3.00;;;;;;;23.94;30.73;98817.91;123628;1097;104319;-75
2022/04/09 10:10:38;;;;;;;11.83;3.43;;;;;;;23.94;29.78;98812.55;123603;1099;104339;-75
2022/04/09 10:13:11;;;;;;;14.10;3.40;;;;;;;23.96;30.76;98807.98;123437;1098;104370;-76
2022/04/09 10:15:41;;;;;;;;;;;;;;;24.04;31.25;98810.31;123381;1099;104335;-75
2022/04/09 10:18:14;;;;;;;11.50;3.97;;;;;;;24.14;31.14;98806.27;123346;1098;104636;-76
2022/04/09 10:20:45;;;;;;;6.63;3.50;;;;;;;24.23;31.00;98807.62;123570;1099;104210;-75
2022/04/09 10:23:18;;;;;;;10.07;3.77;;;;;;;24.29;30.38;98801.12;123594;1099;104730;-75
2022/04/09 10:25:52;;;;;;;7.00;3.87;;;;;;;24.38;30.08;98796.18;123547;1099;104344;-75
2022/04/09 10:28:36;;;;;;;7.80;3.90;;;;;;;24.37;29.06;98793.58;123810;1099;104335;-75
2022/04/09 10:31:36;;;;;;;4.77;3.53;;;;;;;24.42;29.67;98799.61;123548;1099;104274;-75
2022/04/09 10:34:10;;;;;;;7.80;4.00;;;;;;;24.50;29.97;98809.96;123480;1099;104651;-76
2022/04/09 10:37:04;;;;;;;10.60;3.70;;;;;;;24.47;30.07;98794.88;123356;1098;104325;-75
2022/04/09 10:39:47;;;;;;;6.57;3.67;;;;;;;24.45;29.80;98785.16;123374;1099;104294;-75
2022/04/09 10:42:50;;;;;;;7.07;3.50;;;;;;;24.43;30.38;98787.92;123360;1099;104245;-74
2022/04/09 10:45:24;;;;;;;7.23;3.50;;;;;;;24.35;30.09;98782.92;123411;1099;104271;-75
2022/04/09 10:48:14;;;;;;;;;;;;;;;24.27;30.17;98787.80;123453;1099;104275;-75
2022/04/09 10:51:04;;;;;;;6.47;3.57;;;;;;;24.20;29.51;98792.59;123565;1099;104302;-75
2022/04/09 10:53:37;;;;;;;8.87;4.00;;;;;;;24.26;29.63;98785.19;123463;1099;104284;-76
2022/04/09 10:56:20;;;;;;;7.27;3.63;;;;;;;24.27;30.20;98784.26;123517;1097;104364;-76
2022/04/09 10:59:31;;;;;;;10.48;4.47;;;;;;;24.30;29.40;98787.65;123376;1099;104257;-75
2022/04/09 11:02:04;;;;;;;10.53;3.70;;;;;;;24.33;29.64;98776.78;123473;1099;104271;-77
2022/04/09 11:04:45;;;;;;;8.23;3.20;;;;;;;24.34;29.90;98772.28;123375;1099;105608;-77
2022/04/09 11:07:19;;;;;;;6.37;3.20;;;;;;;24.31;29.58;98761.70;123313;1096;104706;-76
2022/04/09 11:09:59;;;;;;;7.03;3.60;;;;;;;24.40;30.00;98753.22;123379;1099;104236;-77
2022/04/09 11:12:32;;;;;;;7.43;3.00;;;;;;;24.38;29.94;98752.44;123308;1098;104312;-75
2022/04/09 11:15:06;;;;;;;8.60;3.02;;;;;;;24.46;29.72;98749.38;123382;1099;104240;-75
2022/04/09 11:17:37;;;;;;;;;;;;;;;24.57;29.14;98734.55;123397;1099;104217;-75
2022/04/09 11:20:11;;;;;;;7.53;3.93;;;;;;;24.67;28.98;98742.98;123398;1099;104364;-75
2022/04/09 11:22:44;;;;;;;5.63;3.20;;;;;;;24.75;28.36;98746.14;123451;1098;104387;-76
2022/04/09 11:25:23;;;;;;;8.83;2.95;;;;;;;24.88;28.98;98745.52;123410;1098;104235;-76
2022/04/09 11:28:05;;;;;;;5.80;3.00;;;;;;;24.98;28.50;98735.17;123404;1099;104351;-75
2022/04/09 11:30:37;;;;;;;6.67;2.50;;;;;;;24.85;28.20;98733.13;123570;1096;104246;-75
2022/04/09 11:33:16;;;;;;;6.53;2.97;;;;;;;24.76;28.39;98737.16;123615;1099;104422;-75
2022/04/09 11:35:50;;;;;;;3.67;2.80;;;;;;;24.81;28.06;98725.31;123646;1099;104296;-74
2022/04/09 11:38:24;;;;;;;6.23;3.10;;;;;;;24.82;28.56;98721.69;123640;1099;104302;-75
2022/04/09 11:40:58;;;;;;;9.73;3.00;;;;;;;24.84;28.37;98715.31;123670;1099;104271;-74
2022/04/09 11:43:30;;;;;;;4.80;2.83;;;;;;;24.92;28.52;98706.88;123583;1099;104255;-75